Time;durP1;ratioP1;P1;durP2;ratioP2;P2;SDS_P1;SDS_P2;PMS_P1;PMS_P2;Temp;Humidity;BMP_temperature;BMP_pressure;BME280_temperature;BME280_humidity;BME280_pressure;Samples;Min_cycle;Max_cycle;Signal;HPM_P1;HPM_P2
2024/01/20 00:01:03;;;;;;;0.00;0.00;;;27.90;41.20;;;;;;5005015;28;20201;-41
2024/01/20 00:03:34;;;;;;;0.00;0.00;;;27.90;41.10;;;;;;5010242;28;20225;-40
2024/01/20 00:06:07;;;;;;;0.00;0.00;;;27.90;41.10;;;;;;5008981;28;20201;-41
2024/01/20 00:08:37;;;;;;;0.00;0.00;;;28.00;41.20;;;;;;5008116;28;20227;-41
2024/01/20 00:11:08;;;;;;;0.00;0.00;;;28.00;41.10;;;;;;5009079;28;20196;-43
2024/01/20 00:13:38;;;;;;;0.00;0.00;;;28.00;40.80;;;;;;5010126;28;20677;-41
2024/01/20 00:16:09;;;;;;;0.00;0.00;;;28.00;40.80;;;;;;5009357;28;20209;-41
2024/01/20 00:18:40;;;;;;;0.00;0.00;;;28.10;40.70;;;;;;5009917;28;20205;-41
2024/01/20 00:21:12;;;;;;;0.00;0.00;;;28.10;40.70;;;;;;5009687;28;20208;-42
2024/01/20 00:23:43;;;;;;;0.00;0.00;;;28.10;40.50;;;;;;5009106;28;20220;-41
2024/01/20 00:26:14;;;;;;;0.00;0.00;;;28.10;40.50;;;;;;5009096;28;20208;-41
2024/01/20 00:28:44;;;;;;;0.00;0.00;;;28.20;40.40;;;;;;5009044;28;20582;-42
2024/01/20 00:31:15;;;;;;;0.00;0.00;;;28.20;40.30;;;;;;5008903;28;20208;-50
2024/01/20 00:33:46;;;;;;;0.00;0.00;;;28.20;40.20;;;;;;5008293;28;20228;-41
2024/01/20 00:36:18;;;;;;;0.00;0.00;;;28.20;40.10;;;;;;5008266;28;20216;-45
2024/01/20 00:38:49;;;;;;;0.00;0.00;;;28.30;40.10;;;;;;5008893;28;20208;-42
2024/01/20 00:41:19;;;;;;;0.00;0.00;;;28.30;40.10;;;;;;5009204;28;20201;-41
2024/01/20 00:43:50;;;;;;;0.00;0.00;;;28.30;40.00;;;;;;5008759;28;20216;-41
2024/01/20 00:46:21;;;;;;;0.00;0.00;;;28.40;40.10;;;;;;5008287;28;20657;-41
2024/01/20 00:48:51;;;;;;;0.00;0.00;;;28.40;40.20;;;;;;5008820;28;20549;-41
2024/01/20 00:51:24;;;;;;;0.00;0.00;;;28.40;40.10;;;;;;5008240;28;20203;-43
2024/01/20 00:53:54;;;;;;;0.00;0.00;;;28.40;40.10;;;;;;5008698;28;20746;-42
2024/01/20 00:56:25;;;;;;;0.00;0.00;;;28.50;40.20;;;;;;5008259;28;20196;-42
2024/01/20 00:58:55;;;;;;;0.00;0.00;;;28.50;40.20;;;;;;5008926;28;20212;-41
2024/01/20 01:01:26;;;;;;;0.00;0.00;;;28.50;40.20;;;;;;5008245;28;20211;-41
2024/01/20 01:03:57;;;;;;;0.00;0.00;;;28.50;40.20;;;;;;5008861;28;20208;-42
2024/01/20 01:06:29;;;;;;;0.00;0.00;;;28.60;40.20;;;;;;5008224;28;20220;-42
2024/01/20 01:09:00;;;;;;;0.00;0.00;;;28.60;40.20;;;;;;5001523;28;20204;-42
2024/01/20 01:11:31;;;;;;;0.00;0.00;;;28.60;40.20;;;;;;5008626;28;20207;-42
2024/01/20 01:14:02;;;;;;;0.00;0.00;;;28.70;40.20;;;;;;5007991;28;20315;-47
2024/01/20 01:16:33;;;;;;;0.00;0.00;;;28.70;40.10;;;;;;5008604;28;20208;-46
2024/01/20 01:19:04;;;;;;;0.00;0.00;;;28.70;40.10;;;;;;5008065;28;20196;-42
2024/01/20 01:21:36;;;;;;;0.00;0.00;;;28.70;40.10;;;;;;5008467;28;20205;-41
2024/01/20 01:24:08;;;;;;;0.00;0.00;;;28.80;40.00;;;;;;5008108;28;20707;-41
2024/01/20 01:26:38;;;;;;;0.00;0.00;;;28.80;40.10;;;;;;5007647;28;20267;-41
2024/01/20 01:29:09;;;;;;;0.00;0.00;;;28.90;40.10;;;;;;5008157;28;20668;-42
2024/01/20 01:31:40;;;;;;;0.00;0.00;;;28.90;40.10;;;;;;5007438;28;20837;-41
2024/01/20 01:34:10;;;;;;;0.00;0.00;;;28.90;40.10;;;;;;5008656;28;20228;-41
2024/01/20 01:36:43;;;;;;;0.00;0.00;;;29.00;40.20;;;;;;5008359;28;20208;-42
2024/01/20 01:39:13;;;;;;;0.00;0.00;;;29.00;40.10;;;;;;5007635;28;20205;-42
2024/01/20 01:41:44;;;;;;;0.00;0.00;;;29.10;40.10;;;;;;5007621;28;20220;-42
2024/01/20 01:44:15;;;;;;;0.00;0.00;;;29.10;39.70;;;;;;5008111;28;20588;-42
2024/01/20 01:46:46;;;;;;;0.00;0.00;;;29.10;39.50;;;;;;5008034;28;20197;-41
2024/01/20 01:49:16;;;;;;;0.00;0.00;;;29.10;39.40;;;;;;5008630;28;20212;-44
2024/01/20 01:51:50;;;;;;;0.00;0.00;;;29.10;39.20;;;;;;5007509;28;20244;-41
2024/01/20 01:54:23;;;;;;;0.00;0.00;;;29.10;39.10;;;;;;5008323;28;20475;-45
2024/01/20 01:56:55;;;;;;;0.00;0.00;;;29.20;39.60;;;;;;5007663;28;20205;-41
2024/01/20 01:59:27;;;;;;;0.00;0.00;;;29.20;38.90;;;;;;5010419;28;20205;-42
2024/01/20 02:01:57;;;;;;;0.00;0.00;;;29.20;38.70;;;;;;5015247;28;20212;-45
2024/01/20 02:04:28;;;;;;;0.00;0.00;;;29.30;38.70;;;;;;5014549;28;20192;-42
2024/01/20 02:07:01;;;;;;;0.00;0.00;;;29.30;38.60;;;;;;5014876;28;20201;-42
2024/01/20 02:09:34;;;;;;;0.00;0.00;;;29.30;38.40;;;;;;5015163;28;20200;-42
2024/01/20 02:12:06;;;;;;;0.00;0.00;;;29.30;38.30;;;;;;5014714;28;20217;-44
2024/01/20 02:14:38;;;;;;;0.00;0.00;;;29.40;38.30;;;;;;5014826;28;20228;-42
2024/01/20 02:17:09;;;;;;;0.00;0.00;;;29.40;38.30;;;;;;5015436;28;20200;-44
2024/01/20 02:19:43;;;;;;;0.00;0.00;;;29.40;38.30;;;;;;5015172;28;20255;-42
2024/01/20 02:22:16;;;;;;;0.00;0.00;;;29.40;38.40;;;;;;5015835;28;20271;-42
2024/01/20 02:24:51;;;;;;;0.00;0.00;;;29.50;38.30;;;;;;5015026;28;20223;-42
2024/01/20 02:27:22;;;;;;;0.00;0.00;;;29.50;38.30;;;;;;5013957;28;20195;-42
2024/01/20 02:29:52;;;;;;;0.00;0.00;;;29.50;38.30;;;;;;5014379;28;20228;-42
2024/01/20 02:32:23;;;;;;;0.00;0.00;;;29.60;38.30;;;;;;5015038;28;20243;-45
2024/01/20 02:34:54;;;;;;;0.00;0.00;;;29.60;38.10;;;;;;5014620;28;20228;-42
2024/01/20 02:37:26;;;;;;;0.00;0.00;;;29.60;38.10;;;;;;5014027;28;20204;-42
2024/01/20 02:39:58;;;;;;;0.00;0.00;;;29.60;38.00;;;;;;5014431;28;20202;-42
2024/01/20 02:42:28;;;;;;;0.00;0.00;;;29.70;37.90;;;;;;5014541;28;20681;-42
2024/01/20 02:44:59;;;;;;;0.00;0.00;;;29.60;37.90;;;;;;5014721;28;20581;-42
2024/01/20 02:47:30;;;;;;;0.00;0.00;;;29.70;38.10;;;;;;5014747;28;20196;-42
2024/01/20 02:50:00;;;;;;;0.00;0.00;;;29.70;38.30;;;;;;5014729;28;20200;-41
2024/01/20 02:52:33;;;;;;;0.00;0.00;;;29.80;38.20;;;;;;5014366;28;20739;-42
2024/01/20 02:55:03;;;;;;;0.00;0.00;;;29.80;38.20;;;;;;5014084;28;20231;-45
2024/01/20 02:57:34;;;;;;;0.00;0.00;;;29.90;38.20;;;;;;5014392;28;20192;-46
2024/01/20 03:00:05;;;;;;;0.00;0.00;;;29.90;38.10;;;;;;5014267;28;20266;-41
2024/01/20 03:02:37;;;;;;;0.00;0.00;;;29.90;37.90;;;;;;5014435;28;20242;-42
2024/01/20 03:05:08;;;;;;;0.00;0.00;;;30.00;38.00;;;;;;5014101;28;20200;-45
2024/01/20 03:07:41;;;;;;;0.00;0.00;;;30.00;38.00;;;;;;5014318;28;20625;-43
2024/01/20 03:10:12;;;;;;;0.00;0.00;;;30.10;37.90;;;;;;5006458;28;20205;-41
2024/01/20 03:12:43;;;;;;;0.00;0.00;;;30.10;37.90;;;;;;4994079;28;20221;-43
2024/01/20 03:15:14;;;;;;;0.00;0.00;;;30.10;38.00;;;;;;4994516;28;20625;-43
2024/01/20 03:17:45;;;;;;;0.00;0.00;;;30.20;37.90;;;;;;4994343;28;20642;-42
2024/01/20 03:20:16;;;;;;;0.00;0.00;;;30.30;37.90;;;;;;4993380;28;20208;-43
2024/01/20 03:22:48;;;;;;;0.00;0.00;;;30.30;37.90;;;;;;4994251;28;20217;-44
2024/01/20 03:25:19;;;;;;;0.00;0.00;;;30.30;37.70;;;;;;4993915;28;20201;-42
2024/01/20 03:27:49;;;;;;;0.00;0.00;;;30.30;37.50;;;;;;5010114;28;20201;-45
2024/01/20 03:30:20;;;;;;;0.00;0.00;;;30.40;37.60;;;;;;5013126;28;20212;-45
2024/01/20 03:32:51;;;;;;;0.00;0.00;;;30.40;37.60;;;;;;5013845;28;20255;-42
2024/01/20 03:35:22;;;;;;;0.00;0.00;;;30.50;37.60;;;;;;5013269;28;20606;-42
2024/01/20 03:37:54;;;;;;;0.00;0.00;;;30.50;37.60;;;;;;5013019;28;20295;-42
2024/01/20 03:40:25;;;;;;;0.00;0.00;;;30.50;37.60;;;;;;5013719;28;20640;-43
2024/01/20 03:42:56;;;;;;;0.00;0.00;;;30.50;37.50;;;;;;5013445;28;20224;-42
2024/01/20 03:45:26;;;;;;;0.00;0.00;;;30.60;37.40;;;;;;5013455;28;20211;-43
2024/01/20 03:47:57;;;;;;;0.00;0.00;;;30.60;37.40;;;;;;5013433;28;20209;-42
2024/01/20 03:50:27;;;;;;;0.00;0.00;;;30.60;37.70;;;;;;5012368;28;20593;-41
2024/01/20 03:53:00;;;;;;;0.00;0.00;;;30.70;38.00;;;;;;5012865;28;20224;-42
2024/01/20 03:55:31;;;;;;;0.00;0.00;;;30.70;38.00;;;;;;5013066;28;20236;-41
2024/01/20 03:58:01;;;;;;;0.00;0.00;;;30.80;38.10;;;;;;5012893;28;20371;-43
2024/01/20 04:00:32;;;;;;;0.00;0.00;;;30.80;38.00;;;;;;5013400;28;20215;-42
2024/01/20 04:03:03;;;;;;;0.00;0.00;;;30.80;38.00;;;;;;5012783;28;20232;-42
2024/01/20 04:05:33;;;;;;;0.00;0.00;;;30.90;38.00;;;;;;5012685;28;20297;-43
2024/01/20 04:08:06;;;;;;;0.00;0.00;;;30.90;38.00;;;;;;5012962;28;20320;-42
2024/01/20 04:10:37;;;;;;;0.00;0.00;;;30.90;37.90;;;;;;5012960;28;20209;-46
2024/01/20 04:13:07;;;;;;;0.00;0.00;;;31.00;38.00;;;;;;5011616;28;20208;-42
2024/01/20 04:15:38;;;;;;;0.00;0.00;;;31.00;37.90;;;;;;4992819;28;20236;-43
2024/01/20 04:18:09;;;;;;;0.00;0.00;;;31.10;37.90;;;;;;4992378;28;20204;-46
2024/01/20 04:20:39;;;;;;;0.00;0.00;;;31.10;38.30;;;;;;4992445;28;20212;-42
2024/01/20 04:23:13;;;;;;;0.00;0.00;;;31.10;37.80;;;;;;4993780;28;20217;-44
2024/01/20 04:25:44;;;;;;;0.00;0.00;;;31.10;37.70;;;;;;4992722;28;20649;-41
2024/01/20 04:28:15;;;;;;;0.00;0.00;;;31.10;37.80;;;;;;5004193;28;20602;-44
2024/01/20 04:30:45;;;;;;;0.00;0.00;;;31.20;37.90;;;;;;5012407;28;20289;-41
2024/01/20 04:33:16;;;;;;;0.00;0.00;;;31.20;38.00;;;;;;5011145;28;20216;-43
2024/01/20 04:35:47;;;;;;;0.00;0.00;;;31.20;38.00;;;;;;5012049;28;20688;-42
2024/01/20 04:38:19;;;;;;;0.00;0.00;;;31.30;38.10;;;;;;5012141;28;20586;-46
2024/01/20 04:40:50;;;;;;;0.00;0.00;;;31.30;38.20;;;;;;5012122;28;20204;-44
2024/01/20 04:43:21;;;;;;;0.00;0.00;;;31.30;38.20;;;;;;5012549;28;20220;-42
2024/01/20 04:45:51;;;;;;;0.00;0.00;;;31.30;38.10;;;;;;5012731;28;20196;-45
2024/01/20 04:48:22;;;;;;;0.00;0.00;;;31.40;37.90;;;;;;5012568;28;20200;-43
2024/01/20 04:50:53;;;;;;;0.00;0.00;;;31.40;37.70;;;;;;5001498;28;20669;-42
2024/01/20 04:53:25;;;;;;;0.00;0.00;;;31.40;37.40;;;;;;4992362;28;20736;-50
2024/01/20 04:55:56;;;;;;;0.00;0.00;;;31.40;37.40;;;;;;4991707;28;20224;-45
2024/01/20 04:58:26;;;;;;;0.00;0.00;;;31.40;37.40;;;;;;4992086;28;20197;-47
2024/01/20 05:00:57;;;;;;;0.00;0.00;;;31.40;37.30;;;;;;4993228;28;20223;-46
2024/01/20 05:03:28;;;;;;;0.00;0.00;;;31.40;37.10;;;;;;4991616;28;20221;-42
2024/01/20 05:05:58;;;;;;;0.00;0.00;;;31.40;37.10;;;;;;4991996;28;20251;-42
2024/01/20 05:08:31;;;;;;;0.00;0.00;;;31.50;37.20;;;;;;5006818;28;20211;-47
2024/01/20 05:11:02;;;;;;;0.00;0.00;;;31.50;37.00;;;;;;5010974;28;20200;-42
2024/01/20 05:13:33;;;;;;;0.00;0.00;;;31.50;37.10;;;;;;5011138;28;20216;-46
2024/01/20 05:16:03;;;;;;;0.00;0.00;;;31.60;36.90;;;;;;5011647;28;20228;-42
2024/01/20 05:18:34;;;;;;;0.00;0.00;;;31.60;36.90;;;;;;5011453;28;20200;-43
2024/01/20 05:21:15;;;;;;;0.00;0.00;;;31.60;36.80;;;;;;5011706;28;20204;-46
2024/01/20 05:23:48;;;;;;;0.00;0.00;;;31.60;37.00;;;;;;5011627;28;20239;-47
2024/01/20 05:26:19;;;;;;;0.00;0.00;;;31.70;36.90;;;;;;5010962;28;20238;-42
2024/01/20 05:28:49;;;;;;;0.00;0.00;;;31.70;36.90;;;;;;5011953;28;20568;-42
2024/01/20 05:31:20;;;;;;;0.00;0.00;;;31.70;36.90;;;;;;5011937;28;20200;-43
2024/01/20 05:33:51;;;;;;;0.00;0.00;;;31.70;37.20;;;;;;5011285;28;20203;-44
2024/01/20 05:36:21;;;;;;;0.00;0.00;;;31.70;37.20;;;;;;5010925;28;20227;-49
2024/01/20 05:38:54;;;;;;;0.00;0.00;;;31.70;37.20;;;;;;5011121;28;20215;-46
2024/01/20 05:41:25;;;;;;;0.00;0.00;;;31.70;37.10;;;;;;5010089;28;20200;-42
2024/01/20 05:43:55;;;;;;;0.00;0.00;;;31.70;36.90;;;;;;5011131;28;20203;-42
2024/01/20 05:46:26;;;;;;;0.00;0.00;;;31.80;36.70;;;;;;5011142;28;20200;-42
2024/01/20 05:48:56;;;;;;;0.00;0.00;;;31.80;36.60;;;;;;5011467;28;20207;-42
2024/01/20 05:51:27;;;;;;;0.00;0.00;;;31.70;37.00;;;;;;5011081;28;20204;-42
2024/01/20 05:54:00;;;;;;;0.00;0.00;;;31.80;36.40;;;;;;5011080;28;20560;-42
2024/01/20 05:56:30;;;;;;;0.00;0.00;;;31.80;36.30;;;;;;5010531;28;20224;-42
2024/01/20 05:59:01;;;;;;;0.00;0.00;;;31.70;36.40;;;;;;5010897;28;20204;-41
2024/01/20 06:01:32;;;;;;;0.00;0.00;;;31.80;36.30;;;;;;5011251;28;20205;-42
2024/01/20 06:04:04;;;;;;;0.00;0.00;;;31.80;36.40;;;;;;5011439;28;20203;-41
2024/01/20 06:06:34;;;;;;;0.00;0.00;;;31.80;36.50;;;;;;5011047;28;20216;-42
2024/01/20 06:09:07;;;;;;;0.00;0.00;;;31.80;36.70;;;;;;5010773;28;20280;-42
2024/01/20 06:11:37;;;;;;;0.00;0.00;;;31.80;36.60;;;;;;5010619;28;20201;-42
2024/01/20 06:14:08;;;;;;;0.00;0.00;;;31.80;36.60;;;;;;5010971;28;20227;-42
2024/01/20 06:16:41;;;;;;;0.00;0.00;;;31.80;36.50;;;;;;5010800;28;20227;-43
2024/01/20 06:19:11;;;;;;;0.00;0.00;;;31.90;36.50;;;;;;5010839;28;20216;-42
2024/01/20 06:21:42;;;;;;;0.00;0.00;;;31.90;36.40;;;;;;5010015;28;20192;-41
2024/01/20 06:24:15;;;;;;;0.00;0.00;;;31.90;36.50;;;;;;5011132;28;20207;-42
2024/01/20 06:26:46;;;;;;;0.00;0.00;;;31.90;36.50;;;;;;5010535;28;20208;-41
2024/01/20 06:29:16;;;;;;;0.00;0.00;;;31.90;36.30;;;;;;5011427;28;20204;-42
2024/01/20 06:31:47;;;;;;;0.00;0.00;;;31.90;36.10;;;;;;5010981;28;20688;-41
2024/01/20 06:34:18;;;;;;;0.00;0.00;;;31.90;36.00;;;;;;5010484;28;20602;-41
2024/01/20 06:36:48;;;;;;;0.00;0.00;;;31.90;36.60;;;;;;5010905;28;20228;-41
2024/01/20 06:39:21;;;;;;;0.00;0.00;;;31.90;35.90;;;;;;5007325;28;20201;-51
2024/01/20 06:41:51;;;;;;;0.00;0.00;;;31.90;35.90;;;;;;5004425;28;20231;-41
2024/01/20 06:44:22;;;;;;;0.00;0.00;;;31.90;36.00;;;;;;5008400;28;20202;-42
2024/01/20 06:46:53;;;;;;;0.00;0.00;;;31.90;35.90;;;;;;5010326;28;20283;-41
2024/01/20 06:49:24;;;;;;;0.00;0.00;;;31.90;35.70;;;;;;5010075;28;20660;-42
2024/01/20 06:51:54;;;;;;;0.00;0.00;;;31.90;35.50;;;;;;5011071;28;20762;-43
2024/01/20 06:54:27;;;;;;;0.00;0.00;;;31.90;35.30;;;;;;5010868;28;20572;-44
2024/01/20 06:56:57;;;;;;;0.00;0.00;;;31.80;35.40;;;;;;5010407;28;20232;-41
2024/01/20 06:59:28;;;;;;;0.00;0.00;;;31.80;35.70;;;;;;4991696;28;20201;-41
2024/01/20 07:01:59;;;;;;;0.00;0.00;;;31.80;35.60;;;;;;4991204;28;20225;-42
2024/01/20 07:04:30;;;;;;;0.00;0.00;;;31.80;35.80;;;;;;4994316;28;20786;-43
2024/01/20 07:07:01;;;;;;;0.00;0.00;;;31.80;35.70;;;;;;5010302;28;20200;-46
2024/01/20 07:09:34;;;;;;;0.00;0.00;;;31.80;35.80;;;;;;4991123;28;20208;-41
2024/01/20 07:12:04;;;;;;;0.00;0.00;;;31.80;35.80;;;;;;4990723;28;20268;-41
2024/01/20 07:14:35;;;;;;;0.00;0.00;;;31.80;36.00;;;;;;4990567;28;20213;-42
2024/01/20 07:17:07;;;;;;;0.00;0.00;;;31.80;36.00;;;;;;4990549;28;20225;-41
2024/01/20 07:19:37;;;;;;;0.00;0.00;;;31.80;36.00;;;;;;5000906;28;20204;-41
2024/01/20 07:22:08;;;;;;;0.00;0.00;;;31.80;36.10;;;;;;5011293;28;20224;-41
2024/01/20 07:24:41;;;;;;;0.00;0.00;;;31.80;36.20;;;;;;5009809;28;20211;-47
2024/01/20 07:27:11;;;;;;;0.00;0.00;;;31.80;36.00;;;;;;5009500;28;20209;-48
2024/01/20 07:29:42;;;;;;;0.00;0.00;;;31.80;36.10;;;;;;5010209;28;20575;-41
2024/01/20 07:32:13;;;;;;;0.00;0.00;;;31.80;36.10;;;;;;5010308;28;20573;-43
2024/01/20 07:34:43;;;;;;;0.00;0.00;;;31.80;36.00;;;;;;5009424;28;20292;-42
2024/01/20 07:37:14;;;;;;;0.00;0.00;;;31.80;36.00;;;;;;5010059;28;20224;-41
2024/01/20 07:39:47;;;;;;;0.00;0.00;;;31.80;35.80;;;;;;5009004;28;20200;-47
2024/01/20 07:42:17;;;;;;;0.00;0.00;;;31.70;35.50;;;;;;5010821;28;20696;-47
2024/01/20 07:44:48;;;;;;;0.00;0.00;;;31.70;35.30;;;;;;5013368;28;20602;-42
2024/01/20 07:47:18;;;;;;;0.00;0.00;;;31.70;35.20;;;;;;5013159;28;20204;-45
2024/01/20 07:49:49;;;;;;;0.00;0.00;;;31.70;35.10;;;;;;5013195;28;20204;-40
2024/01/20 07:52:20;;;;;;;0.00;0.00;;;31.70;35.10;;;;;;5013170;28;20216;-42
2024/01/20 07:54:53;;;;;;;0.00;0.00;;;31.70;35.10;;;;;;5011600;28;20196;-41
2024/01/20 07:57:23;;;;;;;0.00;0.00;;;31.60;35.10;;;;;;5012549;28;20235;-42
2024/01/20 07:59:54;;;;;;;0.00;0.00;;;31.60;35.00;;;;;;5011080;28;20204;-41
2024/01/20 08:02:25;;;;;;;0.00;0.00;;;31.50;35.30;;;;;;5012666;28;20224;-41
2024/01/20 08:04:55;;;;;;;0.00;0.00;;;31.50;35.00;;;;;;5008995;28;20204;-41
2024/01/20 08:07:26;;;;;;;0.00;0.00;;;31.50;35.20;;;;;;5009424;28;20201;-40
2024/01/20 08:09:59;;;;;;;0.00;0.00;;;31.50;35.30;;;;;;5008346;28;20207;-41
2024/01/20 08:12:29;;;;;;;0.00;0.00;;;31.50;35.40;;;;;;5009470;28;20220;-41
2024/01/20 08:15:00;;;;;;;0.00;0.00;;;31.40;35.40;;;;;;5008803;28;20207;-41
2024/01/20 08:17:31;;;;;;;0.00;0.00;;;31.40;35.50;;;;;;5009485;28;20228;-51
2024/01/20 08:20:02;;;;;;;0.00;0.00;;;31.40;35.50;;;;;;5007879;28;20204;-50
2024/01/20 08:22:32;;;;;;;0.00;0.00;;;31.40;35.60;;;;;;5008887;28;20220;-43
2024/01/20 08:25:05;;;;;;;0.00;0.00;;;31.40;35.60;;;;;;5008811;28;20679;-47
2024/01/20 08:27:35;;;;;;;0.00;0.00;;;31.40;35.60;;;;;;5008675;28;20203;-48
2024/01/20 08:30:07;;;;;;;0.00;0.00;;;31.30;35.60;;;;;;5009368;28;20215;-44
2024/01/20 08:32:39;;;;;;;0.00;0.00;;;31.30;35.60;;;;;;5009517;28;20220;-46
2024/01/20 08:35:10;;;;;;;0.00;0.00;;;31.20;35.60;;;;;;5009612;28;20649;-47
2024/01/20 08:37:41;;;;;;;0.00;0.00;;;31.30;35.60;;;;;;5008825;28;20236;-40
2024/01/20 08:40:14;;;;;;;0.00;0.00;;;31.20;35.50;;;;;;5008345;28;20605;-45
2024/01/20 08:42:44;;;;;;;0.00;0.00;;;31.20;35.40;;;;;;5008263;28;20232;-41
2024/01/20 08:45:15;;;;;;;0.00;0.00;;;31.20;35.30;;;;;;5007562;28;20668;-43
2024/01/20 08:47:47;;;;;;;0.00;0.00;;;31.10;35.30;;;;;;5008737;28;20227;-46
2024/01/20 08:50:18;;;;;;;0.00;0.00;;;31.10;35.20;;;;;;5008981;28;20201;-40
2024/01/20 08:52:48;;;;;;;0.00;0.00;;;31.10;35.30;;;;;;5008662;28;20513;-43
2024/01/20 08:55:21;;;;;;;0.00;0.00;;;31.00;35.30;;;;;;5008331;28;20200;-43
2024/01/20 08:57:52;;;;;;;0.00;0.00;;;30.90;35.30;;;;;;5007919;28;20563;-42
2024/01/20 09:00:23;;;;;;;0.00;0.00;;;30.90;35.30;;;;;;5007881;28;20197;-41
2024/01/20 09:02:54;;;;;;;0.00;0.00;;;30.90;35.40;;;;;;5008107;28;20267;-41
2024/01/20 09:05:25;;;;;;;0.00;0.00;;;30.80;35.40;;;;;;5007574;28;20197;-41
2024/01/20 09:07:55;;;;;;;0.00;0.00;;;30.80;35.50;;;;;;5007933;28;20216;-41
2024/01/20 09:10:28;;;;;;;0.00;0.00;;;30.80;35.50;;;;;;5007176;28;20209;-43
2024/01/20 09:12:58;;;;;;;0.00;0.00;;;30.80;35.50;;;;;;5008555;28;20224;-40
2024/01/20 09:15:29;;;;;;;0.00;0.00;;;30.80;35.60;;;;;;5008688;28;20211;-40
2024/01/20 09:18:00;;;;;;;0.00;0.00;;;30.70;35.60;;;;;;5008445;28;20235;-49
2024/01/20 09:20:30;;;;;;;0.00;0.00;;;30.60;35.60;;;;;;5007475;28;20692;-44
2024/01/20 09:23:02;;;;;;;0.00;0.00;;;30.70;35.70;;;;;;5007481;28;20761;-51
2024/01/20 09:25:35;;;;;;;0.00;0.00;;;30.60;35.70;;;;;;5008569;28;20229;-40
2024/01/20 09:28:05;;;;;;;0.00;0.00;;;30.60;35.70;;;;;;5007410;28;20239;-44
2024/01/20 09:30:36;;;;;;;0.00;0.00;;;30.60;35.70;;;;;;5008624;28;20210;-47
2024/01/20 09:33:07;;;;;;;0.00;0.00;;;30.50;35.80;;;;;;5007915;28;20260;-45
2024/01/20 09:35:38;;;;;;;0.00;0.00;;;30.50;35.80;;;;;;5007462;28;20255;-53
2024/01/20 09:38:09;;;;;;;0.00;0.00;;;30.50;35.80;;;;;;5006899;28;20629;-40
2024/01/20 09:40:41;;;;;;;0.00;0.00;;;30.50;35.80;;;;;;5007750;28;20266;-41
2024/01/20 09:43:12;;;;;;;0.00;0.00;;;30.40;35.80;;;;;;5007868;28;20232;-41
2024/01/20 09:45:43;;;;;;;0.00;0.00;;;30.40;35.80;;;;;;5007559;28;20211;-43
2024/01/20 09:48:14;;;;;;;0.00;0.00;;;30.40;35.90;;;;;;5008292;28;20613;-41
2024/01/20 09:50:45;;;;;;;0.00;0.00;;;30.40;35.90;;;;;;5007251;28;20204;-41
2024/01/20 09:53:17;;;;;;;0.00;0.00;;;30.30;35.80;;;;;;5007306;28;20701;-40
2024/01/20 09:55:50;;;;;;;0.00;0.00;;;30.30;35.90;;;;;;5007245;28;20199;-48
2024/01/20 09:58:21;;;;;;;0.00;0.00;;;30.20;35.90;;;;;;5008028;28;20205;-41
2024/01/20 10:00:53;;;;;;;0.00;0.00;;;30.20;35.90;;;;;;5007899;28;20540;-41
2024/01/20 10:03:28;;;;;;;0.00;0.00;;;30.20;35.90;;;;;;5007696;28;20240;-43
2024/01/20 10:05:59;;;;;;;0.00;0.00;;;30.10;35.90;;;;;;5007841;28;20196;-44
2024/01/20 10:08:30;;;;;;;0.00;0.00;;;30.10;35.90;;;;;;5006760;28;20284;-50
2024/01/20 10:11:09;;;;;;;0.00;0.00;;;30.10;36.00;;;;;;5008034;28;20200;-44
2024/01/20 10:13:39;;;;;;;0.00;0.00;;;30.10;36.10;;;;;;5007037;28;20225;-45
2024/01/20 10:16:10;;;;;;;0.00;0.00;;;30.00;36.10;;;;;;5007236;28;20212;-44
2024/01/20 10:18:41;;;;;;;0.00;0.00;;;30.00;36.10;;;;;;5008509;28;20205;-44
2024/01/20 10:21:12;;;;;;;0.00;0.00;;;30.00;36.20;;;;;;5010841;28;20609;-40
2024/01/20 10:23:43;;;;;;;0.00;0.00;;;29.90;36.20;;;;;;5011542;28;20276;-45
2024/01/20 10:26:15;;;;;;;0.00;0.00;;;29.90;36.20;;;;;;5012504;28;20592;-43
2024/01/20 10:28:46;;;;;;;0.00;0.00;;;29.90;36.20;;;;;;5010942;28;20207;-46
2024/01/20 10:31:17;;;;;;;0.00;0.00;;;29.90;36.30;;;;;;5011276;28;20209;-48
2024/01/20 10:33:48;;;;;;;0.00;0.00;;;29.80;36.20;;;;;;5011823;28;20224;-43
2024/01/20 10:36:21;;;;;;;0.00;0.00;;;29.80;36.30;;;;;;5011083;28;20251;-40
2024/01/20 10:38:54;;;;;;;0.00;0.00;;;29.80;36.30;;;;;;5010157;28;20460;-40
2024/01/20 10:41:27;;;;;;;0.00;0.00;;;29.70;36.30;;;;;;5011157;28;20204;-44
2024/01/20 10:44:04;;;;;;;0.00;0.00;;;29.80;36.40;;;;;;5011835;28;20576;-40
2024/01/20 10:46:38;;;;;;;0.00;0.00;;;29.70;36.30;;;;;;5010571;28;20295;-41
2024/01/20 10:49:13;;;;;;;0.00;0.00;;;29.70;36.40;;;;;;5011265;28;20204;-40
2024/01/20 10:51:45;;;;;;;0.00;0.00;;;29.70;36.40;;;;;;5010672;28;20291;-41
2024/01/20 10:54:16;;;;;;;0.00;0.00;;;29.60;36.30;;;;;;5009479;28;20672;-41
2024/01/20 10:56:49;;;;;;;0.00;0.00;;;29.60;36.40;;;;;;5010330;28;20244;-40
2024/01/20 10:59:22;;;;;;;0.00;0.00;;;29.60;36.40;;;;;;5010959;28;20677;-42
2024/01/20 11:01:53;;;;;;;0.00;0.00;;;29.60;36.50;;;;;;5010300;28;20221;-40
2024/01/20 11:04:24;;;;;;;0.00;0.00;;;29.50;36.40;;;;;;5011311;28;20213;-42
2024/01/20 11:06:55;;;;;;;0.00;0.00;;;29.50;36.50;;;;;;5013590;28;20235;-42
2024/01/20 11:09:26;;;;;;;0.00;0.00;;;29.50;36.50;;;;;;5014526;28;20239;-45
2024/01/20 11:12:06;;;;;;;0.00;0.00;;;29.50;36.50;;;;;;5014081;28;20220;-41
2024/01/20 11:14:38;;;;;;;0.00;0.00;;;29.40;36.60;;;;;;5014674;28;20653;-42
2024/01/20 11:17:20;;;;;;;0.00;0.00;;;29.40;36.60;;;;;;5014282;28;20228;-42
2024/01/20 11:19:50;;;;;;;0.00;0.00;;;29.40;36.60;;;;;;5014101;28;20552;-43
2024/01/20 11:22:37;;;;;;;0.00;0.00;;;29.30;36.60;;;;;;5014115;28;20216;-43
2024/01/20 11:25:10;;;;;;;0.00;0.00;;;29.30;36.60;;;;;;5014690;28;20196;-43
2024/01/20 11:27:54;;;;;;;0.00;0.00;;;29.30;36.60;;;;;;5013662;28;20275;-40
2024/01/20 11:30:31;;;;;;;0.00;0.00;;;29.30;36.60;;;;;;5011562;28;20456;-50
2024/01/20 11:33:02;;;;;;;0.00;0.00;;;29.30;36.70;;;;;;5013728;28;20215;-41
2024/01/20 11:35:33;;;;;;;0.00;0.00;;;29.30;36.70;;;;;;5013727;28;20193;-41
2024/01/20 11:38:05;;;;;;;0.00;0.00;;;29.20;36.70;;;;;;5013326;28;20696;-43
2024/01/20 11:40:36;;;;;;;0.00;0.00;;;29.20;37.40;;;;;;5011242;28;20645;-40
2024/01/20 11:43:12;;;;;;;0.00;0.00;;;29.20;36.70;;;;;;5013092;28;20483;-45
2024/01/20 11:45:43;;;;;;;0.00;0.00;;;29.10;36.70;;;;;;5011659;28;20228;-40
2024/01/20 11:48:17;;;;;;;0.00;0.00;;;29.10;36.70;;;;;;5013428;28;20189;-45
2024/01/20 11:50:47;;;;;;;0.00;0.00;;;29.10;36.70;;;;;;5013333;28;20199;-45
2024/01/20 11:53:20;;;;;;;0.00;0.00;;;29.00;37.30;;;;;;5010962;28;20598;-47
2024/01/20 11:55:59;;;;;;;0.00;0.00;;;29.00;36.80;;;;;;5012747;28;20264;-41
2024/01/20 11:58:32;;;;;;;0.00;0.00;;;29.00;36.80;;;;;;5012508;28;20708;-41
2024/01/20 12:01:04;;;;;;;0.00;0.00;;;29.00;36.80;;;;;;5011938;28;20288;-41
2024/01/20 12:03:35;;;;;;;0.00;0.00;;;28.90;36.80;;;;;;5010057;28;20243;-40
2024/01/20 12:06:10;;;;;;;0.00;0.00;;;28.90;36.80;;;;;;5012367;28;20653;-45
2024/01/20 12:08:42;;;;;;;0.00;0.00;;;28.80;36.80;;;;;;5011221;28;20285;-41
2024/01/20 12:11:20;;;;;;;0.00;0.00;;;28.90;36.90;;;;;;5012852;28;20289;-41
2024/01/20 12:13:53;;;;;;;0.00;0.00;;;28.80;36.90;;;;;;5012652;28;20252;-47
2024/01/20 12:16:24;;;;;;;0.00;0.00;;;28.80;36.90;;;;;;5012464;28;20714;-42
2024/01/20 12:18:54;;;;;;;0.00;0.00;;;28.80;37.50;;;;;;5012882;28;20228;-41
2024/01/20 12:21:27;;;;;;;0.00;0.00;;;28.80;36.90;;;;;;5013248;28;20588;-40
2024/01/20 12:23:58;;;;;;;0.00;0.00;;;28.70;36.90;;;;;;5012740;28;20197;-41
2024/01/20 12:26:29;;;;;;;0.00;0.00;;;28.80;37.00;;;;;;5011970;28;20204;-40
2024/01/20 12:29:02;;;;;;;0.00;0.00;;;28.70;36.90;;;;;;5012344;28;20208;-42
2024/01/20 12:31:33;;;;;;;0.00;0.00;;;28.70;37.00;;;;;;5012426;28;20208;-40
2024/01/20 12:34:04;;;;;;;0.00;0.00;;;28.70;37.00;;;;;;5012856;28;20603;-41
2024/01/20 12:36:35;;;;;;;0.00;0.00;;;28.70;37.00;;;;;;5012963;28;20672;-42
2024/01/20 12:39:05;;;;;;;0.00;0.00;;;28.60;36.90;;;;;;5012387;28;20209;-41
2024/01/20 12:41:36;;;;;;;0.00;0.00;;;28.60;37.00;;;;;;5012162;28;20200;-43
2024/01/20 12:44:09;;;;;;;0.00;0.00;;;28.60;37.00;;;;;;5012342;28;20196;-40
2024/01/20 12:46:39;;;;;;;0.00;0.00;;;28.50;37.00;;;;;;5012628;28;20212;-40
2024/01/20 12:49:10;;;;;;;0.00;0.00;;;28.50;37.00;;;;;;5012233;28;20201;-40
2024/01/20 12:51:41;;;;;;;0.00;0.00;;;28.50;37.10;;;;;;5012124;28;20210;-41
2024/01/20 12:54:12;;;;;;;0.00;0.00;;;28.50;37.10;;;;;;5011956;28;20197;-40
2024/01/20 12:56:43;;;;;;;0.00;0.00;;;28.50;37.10;;;;;;5011987;28;20197;-41
2024/01/20 12:59:16;;;;;;;0.00;0.00;;;28.50;37.20;;;;;;5010764;28;20683;-40
2024/01/20 13:01:48;;;;;;;0.00;0.00;;;28.40;37.10;;;;;;5012038;28;20201;-41
2024/01/20 13:04:19;;;;;;;0.00;0.00;;;28.40;37.20;;;;;;5012067;28;20218;-41
2024/01/20 13:06:50;;;;;;;0.00;0.00;;;28.30;37.10;;;;;;5012138;28;20228;-40
2024/01/20 13:09:21;;;;;;;0.00;0.00;;;28.30;37.20;;;;;;5012200;28;20204;-40